Aviation Digital Data Service (ADDS)

Output produced by METARs form (1200 UTC 26 March 2019)
found at http://www.aviationweather.gov/metar/data/
 
TAF EGYP 261019Z 2612/2706 28016KT 9999 SCT030 
     PROB30 
     TEMPO 2612/2613 SCT018 
     TEMPO 2615/2620 28020G30KT 
     PROB30 
     TEMPO 2623/2705 29018G28KT SCT012